Portada
METAR-TAF:

METAR-TAF

Aeroports :

Granada, Espanya

latitud: 37-11N, longitud: 003-47W, altitud: 567 m

Observació

L'informe es va fer fa 14 hores i 51 minuts, a les 05:00 UTC
Vent calma
Temperatura 17°C
Humitat 88%
Pressió 1018 hPa
Visibilitat 10 km o més
sense núvols per sota de 1500 mi sense presència de cumulonimbus.

METAR: LEGR 210500Z 00000KT CAVOK 17/15 Q1018

Hora: 21:51 (19:51 UTC)

Pronòstic

L'informe es va fer fa 14 hores i 49 minuts, a les 05:02 UTC
Pronòstic vàlid del 21 a les 05 UTC al 22 a les 03 UTC
Vent 3 kt amb direcció variable
Visibilitat 10 km o més
sense núvols per sota de 1500 mi sense presència de cumulonimbus.
Evolucionant progressivament
l' 21 a les 14 UTC al 21 a les 16 UTC
Vent 10 kt del Sud
Evolucionant progressivament
l' 21 a les 20 UTC al 21 a les 22 UTC
Vent 3 kt amb direcció variable

TAF: LEGR 210502Z 2105/2203 VRB03KT CAVOK TX34/2115Z TN17/2106Z BECMG 2114/2116 18010KT BECMG 2120/2122 VRB03KT

Observacions i pronòstics meteorològics de més de 4000 aeroports (METAR i TAF).

Les estacions disponibles són els punts grocs i vermells al mapa.

Posi el ratolí al punt desitjat per veure el nom de l'estació.

Feu clic per veure les observacions i els pronòstics meteorològics.

Per canviar el mapa: feu clic els botons verds amb una creu de color negre per apropar; al botó verd amb un guió per allunyar la imatge; o en les fletxes verdes per a mapes adjacents.


METAR-TAF: